createdAt,value
2022-07-28T00:01:13.361Z,1.60
2022-07-28T00:03:42.157Z,1.67
2022-07-28T00:06:10.808Z,1.60
2022-07-28T00:08:39.340Z,1.80
2022-07-28T00:11:08.066Z,1.45
2022-07-28T00:13:36.865Z,1.40
2022-07-28T00:16:07.611Z,1.52
2022-07-28T00:18:36.040Z,1.70
2022-07-28T00:21:04.465Z,1.30
2022-07-28T00:23:39.264Z,1.55
2022-07-28T00:26:08.201Z,1.40
2022-07-28T00:28:36.753Z,1.70
2022-07-28T00:31:07.648Z,1.85
2022-07-28T00:33:40.072Z,1.65
2022-07-28T00:36:08.782Z,1.30
2022-07-28T00:38:41.080Z,1.70
2022-07-28T00:41:12.645Z,1.40
2022-07-28T00:43:41.666Z,1.45
2022-07-28T00:46:10.293Z,2.33
2022-07-28T00:48:40.719Z,1.60
2022-07-28T00:51:10.231Z,1.80
2022-07-28T00:53:38.742Z,1.70
2022-07-28T00:56:07.625Z,1.55
2022-07-28T00:58:36.419Z,1.70
2022-07-28T01:01:05.028Z,1.30
2022-07-28T01:03:33.628Z,1.70
2022-07-28T01:06:07.713Z,1.80
2022-07-28T01:08:45.577Z,1.80
2022-07-28T01:11:15.709Z,1.50
2022-07-28T01:13:48.600Z,1.55
2022-07-28T01:16:17.115Z,1.83
2022-07-28T01:18:56.416Z,1.73
2022-07-28T01:21:28.078Z,1.50
2022-07-28T01:24:04.675Z,1.73
2022-07-28T01:26:39.723Z,1.88
2022-07-28T01:29:18.117Z,1.77
2022-07-28T01:31:50.622Z,1.75
2022-07-28T01:34:20.645Z,1.70
2022-07-28T01:36:54.112Z,1.42
2022-07-28T01:39:22.845Z,1.73
2022-07-28T01:41:51.825Z,1.83
2022-07-28T01:44:22.035Z,1.80
2022-07-28T01:46:55.954Z,2.25
2022-07-28T01:49:25.198Z,1.52
2022-07-28T01:51:55.069Z,1.65
2022-07-28T01:54:24.981Z,1.55
2022-07-28T01:56:54.758Z,1.60
2022-07-28T01:59:23.961Z,1.88
2022-07-28T02:01:53.562Z,1.60
2022-07-28T02:04:25.484Z,1.67
2022-07-28T02:06:55.135Z,2.10
2022-07-28T02:09:24.774Z,1.67
2022-07-28T02:11:54.418Z,1.50
2022-07-28T02:14:24.024Z,1.40
2022-07-28T02:16:54.393Z,1.77
2022-07-28T02:19:25.361Z,1.90
2022-07-28T02:21:55.299Z,1.85
2022-07-28T02:24:27.032Z,1.85
2022-07-28T02:26:57.938Z,1.92
2022-07-28T02:29:49.906Z,2.47
2022-07-28T02:32:27.844Z,1.75
2022-07-28T02:35:00.175Z,2.15
2022-07-28T02:37:28.725Z,1.65
2022-07-28T02:40:00.215Z,1.75
2022-07-28T02:42:30.686Z,1.65
2022-07-28T02:45:00.250Z,1.73
2022-07-28T02:47:30.840Z,2.20
2022-07-28T02:50:02.330Z,2.20
2022-07-28T02:52:31.450Z,2.20
2022-07-28T02:55:00.575Z,1.77
2022-07-28T02:57:29.466Z,1.75
2022-07-28T02:59:58.304Z,2.10
2022-07-28T03:02:30.727Z,1.73
2022-07-28T03:05:01.663Z,2.22
2022-07-28T03:07:32.076Z,2.10
2022-07-28T03:10:00.991Z,2.03
2022-07-28T03:12:29.837Z,1.95
2022-07-28T03:14:58.281Z,2.10
2022-07-28T03:17:27.300Z,2.05
2022-07-28T03:19:55.703Z,2.20
2022-07-28T03:22:24.079Z,2.08
2022-07-28T03:24:55.053Z,1.80
2022-07-28T03:27:26.154Z,2.10
2022-07-28T03:30:06.166Z,2.20
2022-07-28T03:32:36.315Z,2.20
2022-07-28T03:35:06.070Z,2.50
2022-07-28T03:37:36.968Z,2.05
2022-07-28T03:40:07.472Z,2.08
2022-07-28T03:42:36.229Z,2.28
2022-07-28T03:45:04.975Z,2.17
2022-07-28T03:47:33.405Z,2.63
2022-07-28T03:50:01.800Z,2.38
2022-07-28T03:52:30.249Z,2.45
2022-07-28T03:54:58.654Z,2.40
2022-07-28T03:57:28.513Z,2.38
2022-07-28T03:59:56.909Z,2.47
2022-07-28T04:02:25.465Z,2.05
2022-07-28T04:04:53.906Z,2.05
2022-07-28T04:07:22.375Z,2.30
2022-07-28T04:09:50.754Z,2.45
2022-07-28T04:12:19.187Z,2.20
2022-07-28T04:14:48.953Z,2.42
2022-07-28T04:17:17.369Z,2.00
2022-07-28T04:19:45.754Z,2.28
2022-07-28T04:22:14.138Z,2.78
2022-07-28T04:24:42.532Z,3.10
2022-07-28T04:27:11.347Z,2.40
2022-07-28T04:29:39.750Z,2.63
2022-07-28T04:32:09.598Z,2.60
2022-07-28T04:34:37.992Z,2.55
2022-07-28T04:37:06.413Z,2.60
2022-07-28T04:39:35.227Z,2.17
2022-07-28T04:42:03.805Z,2.60
2022-07-28T04:44:32.206Z,3.08
2022-07-28T04:47:00.620Z,2.70
2022-07-28T04:49:33.139Z,2.67
2022-07-28T04:52:04.371Z,2.60
2022-07-28T04:54:32.821Z,2.30
2022-07-28T04:57:03.724Z,2.80
2022-07-28T04:59:36.624Z,2.88
2022-07-28T05:02:05.072Z,2.60
2022-07-28T05:04:35.259Z,3.35
2022-07-28T05:07:07.988Z,2.90
2022-07-28T05:09:41.250Z,2.90
2022-07-28T05:12:10.143Z,2.88
2022-07-28T05:14:38.546Z,3.08
2022-07-28T05:17:06.996Z,2.50
2022-07-28T05:19:39.566Z,2.40
2022-07-28T05:22:08.009Z,2.67
2022-07-28T05:24:36.406Z,2.78
2022-07-28T05:27:04.837Z,2.50
2022-07-28T05:29:35.142Z,2.90
2022-07-28T05:32:16.490Z,3.03
2022-07-28T05:34:46.728Z,2.47
2022-07-28T05:37:15.142Z,2.65
2022-07-28T05:39:43.529Z,2.80
2022-07-28T05:42:12.026Z,3.10
2022-07-28T05:44:40.426Z,2.70
2022-07-28T05:47:08.938Z,2.70
2022-07-28T05:49:37.329Z,3.00
2022-07-28T05:52:07.333Z,2.97
2022-07-28T05:54:35.743Z,2.78
2022-07-28T05:57:04.169Z,2.95
2022-07-28T05:59:32.575Z,2.97
2022-07-28T06:02:01.666Z,3.00
2022-07-28T06:04:30.566Z,3.10
2022-07-28T06:06:59.312Z,3.03
2022-07-28T06:09:29.203Z,2.90
2022-07-28T06:11:57.606Z,2.63
2022-07-28T06:14:26.062Z,2.70
2022-07-28T06:16:54.495Z,2.78
2022-07-28T06:19:22.967Z,3.25
2022-07-28T06:21:52.500Z,2.65
2022-07-28T06:24:21.001Z,2.80
2022-07-28T06:26:51.047Z,2.65
2022-07-28T06:29:20.744Z,2.70
2022-07-28T06:31:49.170Z,2.58
2022-07-28T06:34:17.806Z,2.53
2022-07-28T06:36:46.469Z,2.75
2022-07-28T06:39:14.859Z,2.58
2022-07-28T06:41:44.611Z,2.88
2022-07-28T06:44:14.947Z,2.80
2022-07-28T06:46:43.599Z,2.20
2022-07-28T06:49:12.539Z,2.30
2022-07-28T06:51:41.318Z,3.00
2022-07-28T06:54:11.590Z,2.38
2022-07-28T06:56:40.104Z,2.33
2022-07-28T06:59:10.551Z,2.13
2022-07-28T07:01:40.517Z,2.50
2022-07-28T07:04:09.251Z,2.47
2022-07-28T07:06:37.665Z,2.50
2022-07-28T07:09:06.190Z,2.22
2022-07-28T07:11:34.585Z,2.42
2022-07-28T07:14:03.019Z,2.40
2022-07-28T07:16:31.475Z,2.17
2022-07-28T07:19:01.329Z,2.10
2022-07-28T07:21:35.487Z,2.28
2022-07-28T07:24:03.944Z,2.03
2022-07-28T07:26:32.354Z,2.42
2022-07-28T07:29:00.830Z,2.38
2022-07-28T07:31:29.303Z,2.28
2022-07-28T07:33:57.800Z,2.30
2022-07-28T07:36:27.596Z,2.80
2022-07-28T07:38:56.209Z,2.42
2022-07-28T07:41:24.847Z,2.28
2022-07-28T07:43:53.893Z,2.55
2022-07-28T07:46:22.333Z,2.42
2022-07-28T07:48:50.871Z,2.47
2022-07-28T07:51:19.326Z,2.38
2022-07-28T07:53:49.118Z,2.63
2022-07-28T07:56:18.389Z,2.85
2022-07-28T07:58:46.900Z,2.60
2022-07-28T08:01:15.468Z,2.45
2022-07-28T08:03:44.796Z,2.25
2022-07-28T08:06:18.425Z,2.45
2022-07-28T08:08:56.769Z,2.25
2022-07-28T08:11:25.176Z,2.42
2022-07-28T08:13:53.634Z,2.80
2022-07-28T08:16:22.112Z,2.20
2022-07-28T08:18:50.552Z,2.20
2022-07-28T08:21:18.994Z,1.98
2022-07-28T08:23:47.926Z,2.30
2022-07-28T08:26:17.686Z,2.70
2022-07-28T08:28:46.155Z,2.38
2022-07-28T08:31:17.065Z,2.20
2022-07-28T08:33:53.733Z,2.17
2022-07-28T08:36:23.576Z,2.30
2022-07-28T08:38:52.014Z,2.78
2022-07-28T08:41:24.738Z,2.40
2022-07-28T08:44:01.870Z,2.30
2022-07-28T08:46:34.509Z,2.15
2022-07-28T08:49:03.253Z,1.88
2022-07-28T08:51:32.067Z,2.13
2022-07-28T08:54:00.853Z,2.10
2022-07-28T08:56:30.734Z,2.00
2022-07-28T08:58:59.822Z,2.03
2022-07-28T09:01:35.850Z,2.50
2022-07-28T09:04:09.251Z,1.98
2022-07-28T09:06:42.057Z,1.95
2022-07-28T09:09:10.626Z,2.20
2022-07-28T09:11:40.644Z,2.15
2022-07-28T09:14:09.074Z,2.10
2022-07-28T09:16:37.530Z,2.15
2022-07-28T09:19:05.986Z,1.73
2022-07-28T09:21:34.557Z,2.03
2022-07-28T09:24:02.995Z,1.85
2022-07-28T09:26:31.415Z,2.10
2022-07-28T09:29:02.410Z,1.90
2022-07-28T09:31:30.978Z,1.92
2022-07-28T09:34:01.464Z,2.40
2022-07-28T09:36:30.066Z,2.00
2022-07-28T09:38:59.261Z,1.88
2022-07-28T09:41:27.720Z,2.05
2022-07-28T09:43:56.142Z,2.10
2022-07-28T09:46:29.190Z,1.88
2022-07-28T09:48:59.294Z,1.90
2022-07-28T09:51:28.705Z,1.80
2022-07-28T09:54:09.413Z,2.10
2022-07-28T09:56:38.170Z,1.80
2022-07-28T09:59:08.166Z,1.70
2022-07-28T10:01:53.075Z,1.70
2022-07-28T10:04:32.980Z,2.10
2022-07-28T10:07:05.932Z,2.05
2022-07-28T10:09:34.518Z,1.70
2022-07-28T10:12:18.977Z,1.80
2022-07-28T10:14:47.858Z,2.17
2022-07-28T10:17:30.196Z,1.60
2022-07-28T10:20:00.792Z,1.98
2022-07-28T10:22:33.041Z,1.88
2022-07-28T10:25:03.297Z,2.10
2022-07-28T10:27:32.212Z,1.77
2022-07-28T10:30:01.263Z,1.60
2022-07-28T10:32:30.617Z,1.83
2022-07-28T10:35:06.030Z,1.90
2022-07-28T10:37:37.442Z,2.00
2022-07-28T10:40:10.274Z,1.60
2022-07-28T10:42:40.551Z,1.73
2022-07-28T10:45:10.245Z,1.50
2022-07-28T10:47:38.674Z,1.77
2022-07-28T10:50:09.651Z,1.90
2022-07-28T10:52:48.880Z,1.60
2022-07-28T10:55:22.425Z,1.80
2022-07-28T10:58:02.066Z,1.90
2022-07-28T11:00:55.376Z,1.80
2022-07-28T11:03:42.735Z,1.80
2022-07-28T11:06:36.140Z,2.00
2022-07-28T11:09:19.408Z,1.80
2022-07-28T11:11:50.912Z,1.60
2022-07-28T11:14:37.275Z,2.25
2022-07-28T11:17:19.878Z,1.77
2022-07-28T11:22:45.132Z,1.60
2022-07-28T11:25:18.836Z,1.60
2022-07-28T11:28:04.450Z,2.05
2022-07-28T11:30:53.484Z,1.85
2022-07-28T11:33:22.560Z,1.80
2022-07-28T11:35:55.160Z,1.50
2022-07-28T11:38:23.997Z,1.80
2022-07-28T11:40:53.027Z,1.40
2022-07-28T11:43:37.925Z,1.75
2022-07-28T11:46:25.379Z,1.55
2022-07-28T11:49:14.858Z,1.50
2022-07-28T11:52:00.039Z,1.60
2022-07-28T11:54:31.380Z,1.70
2022-07-28T11:57:00.167Z,1.70
2022-07-28T11:59:36.699Z,1.67
2022-07-28T12:02:07.418Z,2.28
2022-07-28T12:04:35.910Z,1.58
2022-07-28T12:07:04.751Z,1.80
2022-07-28T12:09:42.060Z,1.77
2022-07-28T12:12:11.263Z,1.85
2022-07-28T12:14:40.381Z,1.70
2022-07-28T12:17:10.627Z,1.95
2022-07-28T12:19:40.991Z,1.70
2022-07-28T12:22:15.728Z,1.80
2022-07-28T12:24:44.785Z,1.75
2022-07-28T12:27:16.682Z,1.60
2022-07-28T12:29:49.423Z,1.80
2022-07-28T12:32:20.147Z,2.08
2022-07-28T12:34:49.492Z,1.77
2022-07-28T12:37:17.938Z,1.90
2022-07-28T12:39:52.593Z,1.63
2022-07-28T12:42:21.120Z,1.75
2022-07-28T12:44:51.377Z,1.50
2022-07-28T12:47:26.882Z,1.70
2022-07-28T12:50:09.789Z,2.10
2022-07-28T12:52:38.293Z,1.73
2022-07-28T12:55:09.984Z,1.67
2022-07-28T12:57:48.151Z,1.80
2022-07-28T13:00:19.224Z,1.90
2022-07-28T13:02:49.732Z,1.80
2022-07-28T13:05:54.813Z,1.60
2022-07-28T13:08:23.422Z,1.63
2022-07-28T13:10:56.966Z,1.77
2022-07-28T13:13:25.748Z,2.10
2022-07-28T13:16:21.334Z,1.95
2022-07-28T13:18:53.432Z,2.10
2022-07-28T13:21:56.876Z,1.63
2022-07-28T13:24:27.836Z,1.67
2022-07-28T13:26:56.194Z,2.15
2022-07-28T13:29:24.825Z,1.83
2022-07-28T13:31:54.716Z,1.70
2022-07-28T13:34:24.812Z,1.73
2022-07-28T13:36:53.471Z,2.28
2022-07-28T13:42:05.617Z,2.25
2022-07-28T13:44:34.869Z,1.38
2022-07-28T13:47:05.749Z,1.48
2022-07-28T13:49:35.081Z,1.65
2022-07-28T13:52:03.605Z,1.67
2022-07-28T13:54:32.219Z,1.80
2022-07-28T13:57:01.653Z,1.77
2022-07-28T13:59:31.384Z,1.90
2022-07-28T14:02:03.887Z,1.67
2022-07-28T14:04:32.252Z,1.92
2022-07-28T14:07:01.028Z,2.00
2022-07-28T14:09:29.389Z,2.15
2022-07-28T14:11:57.752Z,1.80
2022-07-28T14:14:27.370Z,1.90
2022-07-28T14:16:57.311Z,1.88
2022-07-28T14:19:37.802Z,1.67
2022-07-28T14:22:12.748Z,1.83
2022-07-28T14:24:41.956Z,2.13
2022-07-28T14:27:10.966Z,1.55
2022-07-28T14:29:39.377Z,1.80
2022-07-28T14:32:09.262Z,2.05
2022-07-28T14:34:37.601Z,1.85
2022-07-28T14:37:09.428Z,1.75
2022-07-28T14:39:38.679Z,1.67
2022-07-28T14:42:07.157Z,1.98
2022-07-28T14:44:35.547Z,1.90
2022-07-28T14:47:04.327Z,1.80
2022-07-28T14:49:34.078Z,1.65
2022-07-28T14:52:02.467Z,1.65
2022-07-28T14:54:31.035Z,2.00
2022-07-28T14:56:59.415Z,2.28
2022-07-28T14:59:27.745Z,1.75
2022-07-28T15:01:56.420Z,1.73
2022-07-28T15:04:25.496Z,1.70
2022-07-28T15:06:55.240Z,1.83
2022-07-28T15:09:23.922Z,1.90
2022-07-28T15:11:52.277Z,1.75
2022-07-28T15:14:21.087Z,2.03
2022-07-28T15:16:49.751Z,1.90
2022-07-28T15:19:18.103Z,2.05
2022-07-28T15:21:47.386Z,2.13
2022-07-28T15:24:17.792Z,1.88
2022-07-28T15:26:46.689Z,2.00
2022-07-28T15:29:15.029Z,2.38
2022-07-28T15:31:45.206Z,1.65
2022-07-28T15:34:14.134Z,1.65
2022-07-28T15:36:42.694Z,2.05
2022-07-28T15:39:14.000Z,2.05
2022-07-28T15:41:44.533Z,2.00
2022-07-28T15:44:13.424Z,1.75
2022-07-28T15:46:42.692Z,1.52
2022-07-28T15:49:11.921Z,2.00
2022-07-28T15:51:40.800Z,2.00
2022-07-28T15:54:09.183Z,1.80
2022-07-28T15:56:37.797Z,1.65
2022-07-28T15:59:08.382Z,2.00
2022-07-28T16:01:38.880Z,2.35
2022-07-28T16:04:09.299Z,1.63
2022-07-28T16:06:55.432Z,1.73
2022-07-28T16:09:23.769Z,1.98
2022-07-28T16:11:52.163Z,1.75
2022-07-28T16:14:21.911Z,2.08
2022-07-28T16:16:50.288Z,1.73
2022-07-28T16:19:38.569Z,1.77
2022-07-28T16:22:07.445Z,1.52
2022-07-28T16:24:35.794Z,1.80
2022-07-28T16:27:04.470Z,2.10
2022-07-28T16:29:34.159Z,1.90
2022-07-28T16:32:02.541Z,1.98
2022-07-28T16:34:30.977Z,1.80
2022-07-28T16:36:59.364Z,2.05
2022-07-28T16:39:27.703Z,2.13
2022-07-28T16:41:56.261Z,1.63
2022-07-28T16:44:25.927Z,1.80
2022-07-28T16:46:55.775Z,2.17
2022-07-28T16:49:24.331Z,1.70
2022-07-28T16:51:52.886Z,2.00
2022-07-28T16:54:21.266Z,1.90
2022-07-28T16:56:49.674Z,1.42
2022-07-28T16:59:18.074Z,2.00
2022-07-28T17:01:46.909Z,2.03
2022-07-28T17:04:17.338Z,1.83
2022-07-28T17:06:46.109Z,1.85
2022-07-28T17:09:16.771Z,1.70
2022-07-28T17:11:45.232Z,2.10
2022-07-28T17:14:14.009Z,1.98
2022-07-28T17:16:42.546Z,1.92
2022-07-28T17:19:10.876Z,1.73
2022-07-28T17:21:41.014Z,1.92
2022-07-28T17:24:12.298Z,1.70
2022-07-28T17:29:29.736Z,1.92
2022-07-28T17:31:58.093Z,1.80
2022-07-28T17:34:26.603Z,2.00
2022-07-28T17:36:57.752Z,1.80
2022-07-28T17:39:26.079Z,1.52
2022-07-28T17:41:54.486Z,1.67
2022-07-28T17:44:22.864Z,1.60
2022-07-28T17:46:51.475Z,1.92
2022-07-28T17:49:19.903Z,1.65
2022-07-28T17:51:48.477Z,1.42
2022-07-28T17:56:00.721Z,1.90
2022-07-28T17:58:32.215Z,1.60
2022-07-28T18:01:11.289Z,1.77
2022-07-28T18:03:56.533Z,1.63
2022-07-28T18:06:29.385Z,1.80
2022-07-28T18:09:05.364Z,2.42
2022-07-28T18:11:55.289Z,1.70
2022-07-28T18:14:25.731Z,2.03
2022-07-28T18:16:54.089Z,1.60
2022-07-28T18:19:22.435Z,1.70
2022-07-28T18:21:50.833Z,1.88
2022-07-28T18:24:21.812Z,1.67
2022-07-28T18:26:52.142Z,1.48
2022-07-28T18:29:21.439Z,1.75
2022-07-28T18:31:50.573Z,1.80
2022-07-28T18:34:19.493Z,1.90
2022-07-28T18:36:51.814Z,2.13
2022-07-28T18:39:20.151Z,1.77
2022-07-28T18:41:48.513Z,1.73
2022-07-28T18:44:19.827Z,1.88
2022-07-28T18:46:48.812Z,1.88
2022-07-28T18:49:17.294Z,1.80
2022-07-28T18:51:46.010Z,2.45
2022-07-28T18:54:17.613Z,1.90
2022-07-28T18:56:50.184Z,1.73
2022-07-28T18:59:19.965Z,1.80
2022-07-28T19:01:48.410Z,2.00
2022-07-28T19:04:17.003Z,2.17
2022-07-28T19:06:45.668Z,1.95
2022-07-28T19:09:14.025Z,1.70
2022-07-28T19:11:45.937Z,1.95
2022-07-28T19:14:15.524Z,1.70
2022-07-28T19:16:45.889Z,1.95
2022-07-28T19:19:14.600Z,1.95
2022-07-28T19:21:43.839Z,2.08
2022-07-28T19:24:12.981Z,1.98
2022-07-28T19:26:42.187Z,2.05
2022-07-28T19:29:10.606Z,1.70
2022-07-28T19:31:39.665Z,1.85
2022-07-28T19:34:09.563Z,2.00
2022-07-28T19:36:38.597Z,2.05
2022-07-28T19:39:06.977Z,1.70
2022-07-28T19:41:35.446Z,1.50
2022-07-28T19:44:03.826Z,1.88
2022-07-28T19:46:32.251Z,1.85
2022-07-28T19:49:00.799Z,1.80
2022-07-28T19:51:30.621Z,1.70
2022-07-28T19:53:59.683Z,1.73
2022-07-28T19:56:31.480Z,2.00
2022-07-28T19:59:00.197Z,2.03
2022-07-28T20:01:28.750Z,1.92
2022-07-28T20:04:01.223Z,1.88
2022-07-28T20:06:34.360Z,1.67
2022-07-28T20:09:02.995Z,1.60
2022-07-28T20:11:32.891Z,1.95
2022-07-28T20:14:01.656Z,2.10
2022-07-28T20:16:30.157Z,1.80
2022-07-28T20:18:58.555Z,2.05
2022-07-28T20:21:27.199Z,1.55
2022-07-28T20:23:58.166Z,1.70
2022-07-28T20:26:27.070Z,2.03
2022-07-28T20:28:56.286Z,1.90
2022-07-28T20:31:24.736Z,1.90
2022-07-28T20:33:53.126Z,1.48
2022-07-28T20:36:23.957Z,1.92
2022-07-28T20:38:57.451Z,1.80
2022-07-28T20:41:25.938Z,1.80
2022-07-28T20:46:42.655Z,1.85
2022-07-28T20:49:11.044Z,1.80
2022-07-28T20:51:39.492Z,1.90
2022-07-28T20:54:15.421Z,2.10
2022-07-28T20:56:44.543Z,1.90
2022-07-28T20:59:13.351Z,1.95
2022-07-28T21:01:41.756Z,2.10
2022-07-28T21:04:11.408Z,2.10
2022-07-28T21:06:51.201Z,1.75
2022-07-28T21:09:22.587Z,2.10
2022-07-28T21:11:51.211Z,1.90
2022-07-28T21:14:19.890Z,2.20
2022-07-28T21:16:48.351Z,2.00
2022-07-28T21:19:16.746Z,1.80
2022-07-28T21:21:45.138Z,1.80
2022-07-28T21:24:13.794Z,1.83
2022-07-28T21:26:44.187Z,1.88
2022-07-28T21:29:12.379Z,1.90
2022-07-28T21:32:05.124Z,1.73
2022-07-28T21:34:30.094Z,2.00
2022-07-28T21:36:59.017Z,1.95
2022-07-28T21:39:27.601Z,2.30
2022-07-28T21:41:57.347Z,2.03
2022-07-28T21:44:25.730Z,2.05
2022-07-28T21:46:54.102Z,1.95
2022-07-28T21:49:22.490Z,2.25
2022-07-28T21:51:50.914Z,2.05
2022-07-28T21:54:19.848Z,1.98
2022-07-28T21:56:48.486Z,1.90
2022-07-28T21:59:18.219Z,1.90
2022-07-28T22:01:46.673Z,2.00
2022-07-28T22:04:15.557Z,1.98
2022-07-28T22:06:46.064Z,1.90
2022-07-28T22:09:15.193Z,1.65
2022-07-28T22:11:43.749Z,1.92
2022-07-28T22:14:12.309Z,2.00
2022-07-28T22:16:42.246Z,1.90
2022-07-28T22:19:12.152Z,2.10
2022-07-28T22:21:40.500Z,1.98
2022-07-28T22:24:09.165Z,2.03
2022-07-28T22:26:37.491Z,2.10
2022-07-28T22:29:05.889Z,2.10
2022-07-28T22:31:34.311Z,1.77
2022-07-28T22:34:04.079Z,2.20
2022-07-28T22:36:32.642Z,2.50
2022-07-28T22:39:01.036Z,2.13
2022-07-28T22:41:29.441Z,2.35
2022-07-28T22:43:58.020Z,2.22
2022-07-28T22:46:26.434Z,1.83
2022-07-28T22:48:54.944Z,2.13
2022-07-28T22:51:24.731Z,1.90
2022-07-28T22:53:53.337Z,2.10
2022-07-28T22:56:21.719Z,2.20
2022-07-28T22:58:55.906Z,2.00
2022-07-28T23:01:24.741Z,2.35
2022-07-28T23:03:53.828Z,1.88
2022-07-28T23:06:22.497Z,1.90
2022-07-28T23:08:52.219Z,2.60
2022-07-28T23:11:20.563Z,2.03
2022-07-28T23:13:48.941Z,2.20
2022-07-28T23:16:17.469Z,2.55
2022-07-28T23:18:46.186Z,2.40
2022-07-28T23:21:14.588Z,2.17
2022-07-28T23:23:42.965Z,2.17
2022-07-28T23:26:12.694Z,1.92
2022-07-28T23:28:41.066Z,2.33
2022-07-28T23:31:09.611Z,2.20
2022-07-28T23:33:56.632Z,2.05
2022-07-28T23:36:26.959Z,2.22
2022-07-28T23:38:56.091Z,1.90
2022-07-28T23:41:26.147Z,1.95
2022-07-28T23:43:54.514Z,1.90
2022-07-28T23:46:22.911Z,1.95
2022-07-28T23:48:52.074Z,2.05
2022-07-28T23:51:21.248Z,1.52
2022-07-28T23:53:55.868Z,1.90
2022-07-28T23:56:26.115Z,2.10
2022-07-28T23:58:54.490Z,1.63
